Terminal Aerodrome Forecast
Issued by NWS Pittsburgh, PA

Current Version | Previous Version | Text Only | Print | Product List | Glossary Off
Versions: 1 2 3 4 5 6 7 8 9 10 11 12 13 14 15 16 17 18 19 20 21 22 23 24 25 26 27

000
FTUS41 KPBZ 202100 AAB
TAFPIT
TAF AMD
KPIT 202106Z 2021/2124 27005KT P6SM SCT025
     FM202300 00000KT P6SM BKN025 BKN120
     FM210900 00000KT P6SM OVC020=

USA.gov is the U.S. government's official web portal to all federal, state and local government web resources and services.